UKON/NLV METAR and TAF weather

Enter ICAO airport designator
Station Type Date Time Source
UKON METAR 2019/06/15 16:00 UTC NOAA

UKON 151600Z 04003MPS 9999 FEW///CB 28/16 Q1012 R04/090068 NOSIG


Station Type Date Time Source
UKON Decoded METAR 2019/06/15 16:00 UTC NOAA

Mykolaiv, Ukraine (UKON) 47-03-29N 031-55-15E
Jun 15, 2019 - 12:00 PM EDT / 2019.06.15 1600 UTC
Wind: from the NE (040 degrees) at 7 MPH (6 KT):0
Visibility: greater than 7 mile(s):0
Sky conditions: mostly clear
Weather: Cumulonimbus clouds observed
Temperature: 82 F (28 C)
Dew Point: 60 F (16 C)
Relative Humidity: 48%
Pressure (altimeter): 29.88 in. Hg (1012 hPa)
ob: UKON 151600Z 04003MPS 9999 FEW///CB 28/16 Q1012 R04/090068 NOSIG
cycle: 16

Station Type Date Time Source
UKON TAF 2018/11/06 15:06 UTC NOAA

TAF
AMD TAF
AMD UKON 061502Z 0615/0724 CNL

Example: see airport list